sensor_id;sensor_type;location;lat;lon;timestamp;temperature;humidity
23568;DHT22;11962;50.838;4.430;2023-10-31T00:01:51;13.10;99.90
23568;DHT22;11962;50.838;4.430;2023-10-31T00:04:17;13.20;99.90
23568;DHT22;11962;50.838;4.430;2023-10-31T00:06:43;13.10;99.90
23568;DHT22;11962;50.838;4.430;2023-10-31T00:09:09;13.10;99.90
23568;DHT22;11962;50.838;4.430;2023-10-31T00:11:36;13.10;99.90
23568;DHT22;11962;50.838;4.430;2023-10-31T00:14:03;13.10;99.90
23568;DHT22;11962;50.838;4.430;2023-10-31T00:16:28;13.20;99.90
23568;DHT22;11962;50.838;4.430;2023-10-31T00:18:54;13.20;99.90
23568;DHT22;11962;50.838;4.430;2023-10-31T00:21:20;13.20;99.90
23568;DHT22;11962;50.838;4.430;2023-10-31T00:23:47;13.20;99.90
23568;DHT22;11962;50.838;4.430;2023-10-31T00:26:13;13.20;99.90
23568;DHT22;11962;50.838;4.430;2023-10-31T00:28:39;13.30;99.90
23568;DHT22;11962;50.838;4.430;2023-10-31T00:31:05;13.30;99.90
23568;DHT22;11962;50.838;4.430;2023-10-31T00:33:36;13.30;99.90
23568;DHT22;11962;50.838;4.430;2023-10-31T00:36:01;13.30;99.90
23568;DHT22;11962;50.838;4.430;2023-10-31T00:38:28;13.30;99.90
23568;DHT22;11962;50.838;4.430;2023-10-31T00:40:53;13.30;99.90
23568;DHT22;11962;50.838;4.430;2023-10-31T00:43:19;13.20;99.90
23568;DHT22;11962;50.838;4.430;2023-10-31T00:45:45;13.20;99.90
23568;DHT22;11962;50.838;4.430;2023-10-31T00:48:10;13.20;99.90
23568;DHT22;11962;50.838;4.430;2023-10-31T00:50:36;13.30;99.90
23568;DHT22;11962;50.838;4.430;2023-10-31T00:53:02;13.30;99.90
23568;DHT22;11962;50.838;4.430;2023-10-31T00:55:27;13.40;99.90
23568;DHT22;11962;50.838;4.430;2023-10-31T00:57:53;13.30;99.90
23568;DHT22;11962;50.838;4.430;2023-10-31T01:00:19;13.30;99.90
23568;DHT22;11962;50.838;4.430;2023-10-31T01:02:45;13.20;99.90
23568;DHT22;11962;50.838;4.430;2023-10-31T01:05:11;13.20;99.90
23568;DHT22;11962;50.838;4.430;2023-10-31T01:07:37;13.20;99.90
23568;DHT22;11962;50.838;4.430;2023-10-31T01:10:03;13.20;99.90
23568;DHT22;11962;50.838;4.430;2023-10-31T01:12:30;13.20;99.90
23568;DHT22;11962;50.838;4.430;2023-10-31T01:14:56;13.20;99.90
23568;DHT22;11962;50.838;4.430;2023-10-31T01:17:22;13.20;99.90
23568;DHT22;11962;50.838;4.430;2023-10-31T01:19:48;13.30;99.90
23568;DHT22;11962;50.838;4.430;2023-10-31T01:22:14;13.30;99.90
23568;DHT22;11962;50.838;4.430;2023-10-31T01:24:39;13.30;99.90
23568;DHT22;11962;50.838;4.430;2023-10-31T01:27:05;13.30;99.90
23568;DHT22;11962;50.838;4.430;2023-10-31T01:29:31;13.40;99.90
23568;DHT22;11962;50.838;4.430;2023-10-31T01:31:57;13.30;99.90
23568;DHT22;11962;50.838;4.430;2023-10-31T01:34:23;13.30;99.90
23568;DHT22;11962;50.838;4.430;2023-10-31T01:36:48;13.30;99.90
23568;DHT22;11962;50.838;4.430;2023-10-31T01:39:14;13.20;99.90
23568;DHT22;11962;50.838;4.430;2023-10-31T01:41:43;13.20;99.90
23568;DHT22;11962;50.838;4.430;2023-10-31T01:44:09;13.20;99.90
23568;DHT22;11962;50.838;4.430;2023-10-31T01:46:35;13.20;99.90
23568;DHT22;11962;50.838;4.430;2023-10-31T01:49:01;13.10;99.90
23568;DHT22;11962;50.838;4.430;2023-10-31T01:51:28;13.00;99.90
23568;DHT22;11962;50.838;4.430;2023-10-31T01:53:55;12.90;99.90
23568;DHT22;11962;50.838;4.430;2023-10-31T01:56:22;12.80;99.90
23568;DHT22;11962;50.838;4.430;2023-10-31T01:58:49;12.80;99.90
23568;DHT22;11962;50.838;4.430;2023-10-31T02:01:15;12.80;99.90
23568;DHT22;11962;50.838;4.430;2023-10-31T02:03:41;12.70;99.90
23568;DHT22;11962;50.838;4.430;2023-10-31T02:06:07;12.70;99.90
23568;DHT22;11962;50.838;4.430;2023-10-31T02:08:33;12.70;99.90
23568;DHT22;11962;50.838;4.430;2023-10-31T02:10:59;12.60;99.90
23568;DHT22;11962;50.838;4.430;2023-10-31T02:13:24;12.60;99.90
23568;DHT22;11962;50.838;4.430;2023-10-31T02:15:50;12.60;99.90
23568;DHT22;11962;50.838;4.430;2023-10-31T02:18:16;12.70;99.90
23568;DHT22;11962;50.838;4.430;2023-10-31T02:20:42;12.70;99.90
23568;DHT22;11962;50.838;4.430;2023-10-31T02:23:08;12.70;99.90
23568;DHT22;11962;50.838;4.430;2023-10-31T02:25:34;12.80;99.90
23568;DHT22;11962;50.838;4.430;2023-10-31T02:28:00;12.70;99.90
23568;DHT22;11962;50.838;4.430;2023-10-31T02:30:27;12.80;99.90
23568;DHT22;11962;50.838;4.430;2023-10-31T02:32:52;12.80;99.90
23568;DHT22;11962;50.838;4.430;2023-10-31T02:35:19;12.80;99.90
23568;DHT22;11962;50.838;4.430;2023-10-31T02:37:46;12.80;99.90
23568;DHT22;11962;50.838;4.430;2023-10-31T02:40:12;12.80;99.90
23568;DHT22;11962;50.838;4.430;2023-10-31T02:42:38;12.80;99.90
23568;DHT22;11962;50.838;4.430;2023-10-31T02:45:04;12.70;99.90
23568;DHT22;11962;50.838;4.430;2023-10-31T02:47:30;12.80;99.90
23568;DHT22;11962;50.838;4.430;2023-10-31T02:49:55;12.80;99.90
23568;DHT22;11962;50.838;4.430;2023-10-31T02:52:21;12.70;99.90
23568;DHT22;11962;50.838;4.430;2023-10-31T02:54:47;12.60;99.90
23568;DHT22;11962;50.838;4.430;2023-10-31T02:57:14;12.60;99.90
23568;DHT22;11962;50.838;4.430;2023-10-31T02:59:40;12.50;99.90
23568;DHT22;11962;50.838;4.430;2023-10-31T03:02:06;12.40;99.90
23568;DHT22;11962;50.838;4.430;2023-10-31T03:04:31;12.30;99.90
23568;DHT22;11962;50.838;4.430;2023-10-31T03:06:57;12.30;99.90
23568;DHT22;11962;50.838;4.430;2023-10-31T03:09:23;12.30;99.90
23568;DHT22;11962;50.838;4.430;2023-10-31T03:11:48;12.30;99.90
23568;DHT22;11962;50.838;4.430;2023-10-31T03:14:14;12.40;99.90
23568;DHT22;11962;50.838;4.430;2023-10-31T03:16:40;12.50;99.90
23568;DHT22;11962;50.838;4.430;2023-10-31T03:19:06;12.50;99.90
23568;DHT22;11962;50.838;4.430;2023-10-31T03:21:32;12.50;99.90
23568;DHT22;11962;50.838;4.430;2023-10-31T03:23:58;12.50;99.90
23568;DHT22;11962;50.838;4.430;2023-10-31T03:26:24;12.50;99.90
23568;DHT22;11962;50.838;4.430;2023-10-31T03:28:49;12.50;99.90
23568;DHT22;11962;50.838;4.430;2023-10-31T03:31:15;12.60;99.90
23568;DHT22;11962;50.838;4.430;2023-10-31T03:33:42;12.60;99.90
23568;DHT22;11962;50.838;4.430;2023-10-31T03:36:08;12.60;99.90
23568;DHT22;11962;50.838;4.430;2023-10-31T03:38:35;12.50;99.90
23568;DHT22;11962;50.838;4.430;2023-10-31T03:41:02;12.60;99.90
23568;DHT22;11962;50.838;4.430;2023-10-31T03:43:28;12.50;99.90
23568;DHT22;11962;50.838;4.430;2023-10-31T03:45:54;12.40;99.90
23568;DHT22;11962;50.838;4.430;2023-10-31T03:48:20;12.40;99.90
23568;DHT22;11962;50.838;4.430;2023-10-31T03:50:46;12.30;99.90
23568;DHT22;11962;50.838;4.430;2023-10-31T03:53:12;12.30;99.90
23568;DHT22;11962;50.838;4.430;2023-10-31T03:55:37;12.30;99.90
23568;DHT22;11962;50.838;4.430;2023-10-31T03:58:03;12.30;99.90
23568;DHT22;11962;50.838;4.430;2023-10-31T04:00:29;12.30;99.90
23568;DHT22;11962;50.838;4.430;2023-10-31T04:02:55;12.30;99.90
23568;DHT22;11962;50.838;4.430;2023-10-31T04:05:21;12.30;99.90
23568;DHT22;11962;50.838;4.430;2023-10-31T04:07:48;12.30;99.90
23568;DHT22;11962;50.838;4.430;2023-10-31T04:10:15;12.30;99.90
23568;DHT22;11962;50.838;4.430;2023-10-31T04:12:41;12.30;99.90
23568;DHT22;11962;50.838;4.430;2023-10-31T04:15:08;12.30;99.90
23568;DHT22;11962;50.838;4.430;2023-10-31T04:17:34;12.20;99.90
23568;DHT22;11962;50.838;4.430;2023-10-31T04:20:00;12.20;99.90
23568;DHT22;11962;50.838;4.430;2023-10-31T04:22:26;12.20;99.90
23568;DHT22;11962;50.838;4.430;2023-10-31T04:24:52;12.20;99.90
23568;DHT22;11962;50.838;4.430;2023-10-31T04:27:18;12.20;99.90
23568;DHT22;11962;50.838;4.430;2023-10-31T04:29:44;12.20;99.90
23568;DHT22;11962;50.838;4.430;2023-10-31T04:32:10;12.20;99.90
23568;DHT22;11962;50.838;4.430;2023-10-31T04:34:36;12.10;99.90
23568;DHT22;11962;50.838;4.430;2023-10-31T04:37:01;12.10;99.90
23568;DHT22;11962;50.838;4.430;2023-10-31T04:39:27;12.10;99.90
23568;DHT22;11962;50.838;4.430;2023-10-31T04:41:53;12.10;99.90
23568;DHT22;11962;50.838;4.430;2023-10-31T04:44:19;12.10;99.90
23568;DHT22;11962;50.838;4.430;2023-10-31T04:46:45;12.10;99.90
23568;DHT22;11962;50.838;4.430;2023-10-31T04:49:11;12.20;99.90
23568;DHT22;11962;50.838;4.430;2023-10-31T04:51:37;12.20;99.90
23568;DHT22;11962;50.838;4.430;2023-10-31T04:54:06;12.10;99.90
23568;DHT22;11962;50.838;4.430;2023-10-31T04:56:32;12.10;99.90
23568;DHT22;11962;50.838;4.430;2023-10-31T04:58:58;12.00;99.90
23568;DHT22;11962;50.838;4.430;2023-10-31T05:01:24;12.00;99.90
23568;DHT22;11962;50.838;4.430;2023-10-31T05:03:50;12.10;99.90
23568;DHT22;11962;50.838;4.430;2023-10-31T05:06:20;12.10;99.90
23568;DHT22;11962;50.838;4.430;2023-10-31T05:08:46;12.10;99.90
23568;DHT22;11962;50.838;4.430;2023-10-31T05:11:12;12.20;99.90
23568;DHT22;11962;50.838;4.430;2023-10-31T05:13:40;12.20;99.90
23568;DHT22;11962;50.838;4.430;2023-10-31T05:16:06;12.20;99.90
23568;DHT22;11962;50.838;4.430;2023-10-31T05:18:32;12.20;99.90
23568;DHT22;11962;50.838;4.430;2023-10-31T05:20:58;12.20;99.90
23568;DHT22;11962;50.838;4.430;2023-10-31T05:23:23;12.20;99.90
23568;DHT22;11962;50.838;4.430;2023-10-31T05:25:49;12.20;99.90
23568;DHT22;11962;50.838;4.430;2023-10-31T05:28:15;12.30;99.90
23568;DHT22;11962;50.838;4.430;2023-10-31T05:30:40;12.30;99.90
23568;DHT22;11962;50.838;4.430;2023-10-31T05:33:06;12.30;99.90
23568;DHT22;11962;50.838;4.430;2023-10-31T05:35:33;12.40;99.90
23568;DHT22;11962;50.838;4.430;2023-10-31T05:37:59;12.40;99.90
23568;DHT22;11962;50.838;4.430;2023-10-31T05:40:25;12.40;99.90
23568;DHT22;11962;50.838;4.430;2023-10-31T05:42:52;12.50;99.90
23568;DHT22;11962;50.838;4.430;2023-10-31T05:45:18;12.40;99.90
23568;DHT22;11962;50.838;4.430;2023-10-31T05:47:44;12.50;99.90
23568;DHT22;11962;50.838;4.430;2023-10-31T05:50:10;12.50;99.90
23568;DHT22;11962;50.838;4.430;2023-10-31T05:52:35;12.50;99.90
23568;DHT22;11962;50.838;4.430;2023-10-31T05:55:02;12.50;99.90
23568;DHT22;11962;50.838;4.430;2023-10-31T05:57:28;12.50;99.90
23568;DHT22;11962;50.838;4.430;2023-10-31T05:59:53;12.50;99.90
23568;DHT22;11962;50.838;4.430;2023-10-31T06:02:19;12.60;99.90
23568;DHT22;11962;50.838;4.430;2023-10-31T06:04:45;12.60;99.90
23568;DHT22;11962;50.838;4.430;2023-10-31T06:07:11;12.60;99.90
23568;DHT22;11962;50.838;4.430;2023-10-31T06:09:37;12.70;99.90
23568;DHT22;11962;50.838;4.430;2023-10-31T06:12:03;12.60;99.90
23568;DHT22;11962;50.838;4.430;2023-10-31T06:14:28;12.60;99.90
23568;DHT22;11962;50.838;4.430;2023-10-31T06:16:54;12.60;99.90
23568;DHT22;11962;50.838;4.430;2023-10-31T06:19:22;12.60;99.90
23568;DHT22;11962;50.838;4.430;2023-10-31T06:21:47;12.60;99.90
23568;DHT22;11962;50.838;4.430;2023-10-31T06:24:13;12.60;99.90
23568;DHT22;11962;50.838;4.430;2023-10-31T06:26:39;12.60;99.90
23568;DHT22;11962;50.838;4.430;2023-10-31T06:29:05;12.50;99.90
23568;DHT22;11962;50.838;4.430;2023-10-31T06:31:31;12.60;99.90
23568;DHT22;11962;50.838;4.430;2023-10-31T06:33:57;12.50;99.90
23568;DHT22;11962;50.838;4.430;2023-10-31T06:36:22;12.50;99.90
23568;DHT22;11962;50.838;4.430;2023-10-31T06:38:48;12.40;99.90
23568;DHT22;11962;50.838;4.430;2023-10-31T06:41:14;12.40;99.90
23568;DHT22;11962;50.838;4.430;2023-10-31T06:43:40;12.40;99.90
23568;DHT22;11962;50.838;4.430;2023-10-31T06:46:05;12.50;99.90
23568;DHT22;11962;50.838;4.430;2023-10-31T06:48:32;12.40;99.90
23568;DHT22;11962;50.838;4.430;2023-10-31T06:50:58;12.40;99.90
23568;DHT22;11962;50.838;4.430;2023-10-31T06:53:23;12.40;99.90
23568;DHT22;11962;50.838;4.430;2023-10-31T06:55:49;12.40;99.90
23568;DHT22;11962;50.838;4.430;2023-10-31T06:58:15;12.40;99.90
23568;DHT22;11962;50.838;4.430;2023-10-31T07:00:41;12.40;99.90
23568;DHT22;11962;50.838;4.430;2023-10-31T07:03:06;12.50;99.90
23568;DHT22;11962;50.838;4.430;2023-10-31T07:05:35;12.50;99.90
23568;DHT22;11962;50.838;4.430;2023-10-31T07:08:01;12.50;99.90
23568;DHT22;11962;50.838;4.430;2023-10-31T07:10:29;12.60;99.90
23568;DHT22;11962;50.838;4.430;2023-10-31T07:12:55;12.70;99.90
23568;DHT22;11962;50.838;4.430;2023-10-31T07:15:21;12.80;99.90
23568;DHT22;11962;50.838;4.430;2023-10-31T07:17:47;12.80;99.90
23568;DHT22;11962;50.838;4.430;2023-10-31T07:20:13;12.80;99.90
23568;DHT22;11962;50.838;4.430;2023-10-31T07:22:39;12.90;99.90
23568;DHT22;11962;50.838;4.430;2023-10-31T07:25:06;13.00;99.90
23568;DHT22;11962;50.838;4.430;2023-10-31T07:27:31;13.00;99.90
23568;DHT22;11962;50.838;4.430;2023-10-31T07:29:57;13.00;99.90
23568;DHT22;11962;50.838;4.430;2023-10-31T07:32:24;12.90;99.90
23568;DHT22;11962;50.838;4.430;2023-10-31T07:34:50;12.90;99.90
23568;DHT22;11962;50.838;4.430;2023-10-31T07:37:16;12.90;99.90
23568;DHT22;11962;50.838;4.430;2023-10-31T07:39:41;13.00;99.90
23568;DHT22;11962;50.838;4.430;2023-10-31T07:42:07;13.20;99.90
23568;DHT22;11962;50.838;4.430;2023-10-31T07:44:33;13.30;99.90
23568;DHT22;11962;50.838;4.430;2023-10-31T07:46:59;13.30;99.90
23568;DHT22;11962;50.838;4.430;2023-10-31T07:49:25;13.40;99.90
23568;DHT22;11962;50.838;4.430;2023-10-31T07:51:51;13.50;99.90
23568;DHT22;11962;50.838;4.430;2023-10-31T07:54:16;13.60;99.90
23568;DHT22;11962;50.838;4.430;2023-10-31T07:56:42;13.60;99.90
23568;DHT22;11962;50.838;4.430;2023-10-31T07:59:08;13.60;99.90
23568;DHT22;11962;50.838;4.430;2023-10-31T08:01:35;13.60;99.90
23568;DHT22;11962;50.838;4.430;2023-10-31T08:04:01;13.60;99.90
23568;DHT22;11962;50.838;4.430;2023-10-31T08:06:27;13.60;99.90
23568;DHT22;11962;50.838;4.430;2023-10-31T08:08:52;13.60;99.90
23568;DHT22;11962;50.838;4.430;2023-10-31T08:11:18;13.70;99.90
23568;DHT22;11962;50.838;4.430;2023-10-31T08:13:44;13.60;99.90
23568;DHT22;11962;50.838;4.430;2023-10-31T08:16:10;13.60;99.90
23568;DHT22;11962;50.838;4.430;2023-10-31T08:18:41;13.70;99.90
23568;DHT22;11962;50.838;4.430;2023-10-31T08:21:07;13.70;99.90
23568;DHT22;11962;50.838;4.430;2023-10-31T08:23:33;13.70;99.90
23568;DHT22;11962;50.838;4.430;2023-10-31T08:26:00;13.80;99.90
23568;DHT22;11962;50.838;4.430;2023-10-31T08:28:26;14.00;99.90
23568;DHT22;11962;50.838;4.430;2023-10-31T08:30:52;14.10;99.90
23568;DHT22;11962;50.838;4.430;2023-10-31T08:33:17;14.10;99.90
23568;DHT22;11962;50.838;4.430;2023-10-31T08:35:43;14.10;99.90
23568;DHT22;11962;50.838;4.430;2023-10-31T08:38:09;14.10;99.90
23568;DHT22;11962;50.838;4.430;2023-10-31T08:40:35;14.10;99.90
23568;DHT22;11962;50.838;4.430;2023-10-31T08:43:00;14.10;99.90
23568;DHT22;11962;50.838;4.430;2023-10-31T08:45:26;14.10;99.90
23568;DHT22;11962;50.838;4.430;2023-10-31T08:47:52;14.10;99.90
23568;DHT22;11962;50.838;4.430;2023-10-31T08:50:18;14.20;99.90
23568;DHT22;11962;50.838;4.430;2023-10-31T08:52:44;14.20;99.90
23568;DHT22;11962;50.838;4.430;2023-10-31T08:55:10;14.30;99.90
23568;DHT22;11962;50.838;4.430;2023-10-31T08:57:36;14.50;99.90
23568;DHT22;11962;50.838;4.430;2023-10-31T09:00:02;14.90;99.90
23568;DHT22;11962;50.838;4.430;2023-10-31T09:02:30;15.70;99.90
23568;DHT22;11962;50.838;4.430;2023-10-31T09:04:56;16.70;99.90
23568;DHT22;11962;50.838;4.430;2023-10-31T09:07:22;17.90;99.90
23568;DHT22;11962;50.838;4.430;2023-10-31T09:09:48;18.40;99.90
23568;DHT22;11962;50.838;4.430;2023-10-31T09:12:13;18.50;99.90
23568;DHT22;11962;50.838;4.430;2023-10-31T09:14:39;18.60;99.90
23568;DHT22;11962;50.838;4.430;2023-10-31T09:17:07;18.60;99.90
23568;DHT22;11962;50.838;4.430;2023-10-31T09:19:32;18.60;99.90
23568;DHT22;11962;50.838;4.430;2023-10-31T09:21:58;18.50;99.90
23568;DHT22;11962;50.838;4.430;2023-10-31T09:24:24;18.30;99.90
23568;DHT22;11962;50.838;4.430;2023-10-31T09:26:50;18.30;99.90
23568;DHT22;11962;50.838;4.430;2023-10-31T09:29:15;18.40;99.90
23568;DHT22;11962;50.838;4.430;2023-10-31T09:31:41;18.50;99.90
23568;DHT22;11962;50.838;4.430;2023-10-31T09:34:07;18.20;99.90
23568;DHT22;11962;50.838;4.430;2023-10-31T09:36:33;17.80;99.90
23568;DHT22;11962;50.838;4.430;2023-10-31T09:39:02;17.50;99.90
23568;DHT22;11962;50.838;4.430;2023-10-31T09:41:28;17.20;99.90
23568;DHT22;11962;50.838;4.430;2023-10-31T09:43:55;16.90;99.90
23568;DHT22;11962;50.838;4.430;2023-10-31T09:46:21;16.70;99.90
23568;DHT22;11962;50.838;4.430;2023-10-31T09:48:49;16.60;99.90
23568;DHT22;11962;50.838;4.430;2023-10-31T09:51:15;16.50;99.90
23568;DHT22;11962;50.838;4.430;2023-10-31T09:53:43;16.40;99.90
23568;DHT22;11962;50.838;4.430;2023-10-31T09:56:10;16.30;99.90
23568;DHT22;11962;50.838;4.430;2023-10-31T09:58:36;16.20;99.90
23568;DHT22;11962;50.838;4.430;2023-10-31T10:01:02;16.10;99.90
23568;DHT22;11962;50.838;4.430;2023-10-31T10:03:29;16.10;99.90
23568;DHT22;11962;50.838;4.430;2023-10-31T10:05:55;16.10;99.90
23568;DHT22;11962;50.838;4.430;2023-10-31T10:08:21;16.10;99.90
23568;DHT22;11962;50.838;4.430;2023-10-31T10:10:48;16.20;99.90
23568;DHT22;11962;50.838;4.430;2023-10-31T10:13:17;16.20;99.90
23568;DHT22;11962;50.838;4.430;2023-10-31T10:15:47;16.10;99.90
23568;DHT22;11962;50.838;4.430;2023-10-31T10:18:26;16.10;99.90
23568;DHT22;11962;50.838;4.430;2023-10-31T10:21:00;16.10;99.90
23568;DHT22;11962;50.838;4.430;2023-10-31T10:23:27;16.10;99.90
23568;DHT22;11962;50.838;4.430;2023-10-31T10:25:54;16.00;99.90
23568;DHT22;11962;50.838;4.430;2023-10-31T10:28:20;15.80;99.90
23568;DHT22;11962;50.838;4.430;2023-10-31T10:30:47;15.70;99.90
23568;DHT22;11962;50.838;4.430;2023-10-31T10:33:14;15.80;99.90
23568;DHT22;11962;50.838;4.430;2023-10-31T10:35:39;15.80;99.90
23568;DHT22;11962;50.838;4.430;2023-10-31T10:38:11;15.80;99.90
23568;DHT22;11962;50.838;4.430;2023-10-31T10:40:41;15.80;99.90
23568;DHT22;11962;50.838;4.430;2023-10-31T10:43:37;15.70;99.90
23568;DHT22;11962;50.838;4.430;2023-10-31T10:46:04;15.70;99.90
23568;DHT22;11962;50.838;4.430;2023-10-31T10:48:32;15.70;99.90
23568;DHT22;11962;50.838;4.430;2023-10-31T10:51:05;15.70;99.90
23568;DHT22;11962;50.838;4.430;2023-10-31T10:53:48;15.70;99.90
23568;DHT22;11962;50.838;4.430;2023-10-31T10:56:24;15.80;99.90
23568;DHT22;11962;50.838;4.430;2023-10-31T10:58:55;15.80;99.90
23568;DHT22;11962;50.838;4.430;2023-10-31T11:01:26;15.80;99.90
23568;DHT22;11962;50.838;4.430;2023-10-31T11:03:55;16.00;99.90
23568;DHT22;11962;50.838;4.430;2023-10-31T11:06:21;16.00;99.90
23568;DHT22;11962;50.838;4.430;2023-10-31T11:08:47;15.90;99.90
23568;DHT22;11962;50.838;4.430;2023-10-31T11:11:13;15.80;99.90
23568;DHT22;11962;50.838;4.430;2023-10-31T11:13:43;15.90;99.90
23568;DHT22;11962;50.838;4.430;2023-10-31T11:16:19;15.90;99.90
23568;DHT22;11962;50.838;4.430;2023-10-31T11:18:47;16.00;99.90
23568;DHT22;11962;50.838;4.430;2023-10-31T11:21:13;15.90;99.90
23568;DHT22;11962;50.838;4.430;2023-10-31T11:23:38;15.70;99.90
23568;DHT22;11962;50.838;4.430;2023-10-31T11:26:07;15.60;99.90
23568;DHT22;11962;50.838;4.430;2023-10-31T11:28:33;15.40;99.90
23568;DHT22;11962;50.838;4.430;2023-10-31T11:31:01;15.30;99.90
23568;DHT22;11962;50.838;4.430;2023-10-31T11:33:28;15.30;99.90
23568;DHT22;11962;50.838;4.430;2023-10-31T11:36:02;15.20;99.90
23568;DHT22;11962;50.838;4.430;2023-10-31T11:38:34;15.30;99.90
23568;DHT22;11962;50.838;4.430;2023-10-31T11:41:02;15.30;99.90
23568;DHT22;11962;50.838;4.430;2023-10-31T11:43:51;15.30;99.90
23568;DHT22;11962;50.838;4.430;2023-10-31T11:46:19;15.20;99.90
23568;DHT22;11962;50.838;4.430;2023-10-31T11:48:50;15.10;99.90
23568;DHT22;11962;50.838;4.430;2023-10-31T11:51:20;14.90;99.90
23568;DHT22;11962;50.838;4.430;2023-10-31T11:53:45;14.90;99.90
23568;DHT22;11962;50.838;4.430;2023-10-31T11:56:14;14.80;99.90
23568;DHT22;11962;50.838;4.430;2023-10-31T11:58:40;14.80;99.90
23568;DHT22;11962;50.838;4.430;2023-10-31T12:01:10;14.80;99.90
23568;DHT22;11962;50.838;4.430;2023-10-31T12:03:41;14.80;99.90
23568;DHT22;11962;50.838;4.430;2023-10-31T12:06:08;14.80;99.90
23568;DHT22;11962;50.838;4.430;2023-10-31T12:08:36;14.80;99.90
23568;DHT22;11962;50.838;4.430;2023-10-31T12:11:13;14.80;99.90
23568;DHT22;11962;50.838;4.430;2023-10-31T12:13:51;14.90;99.90
23568;DHT22;11962;50.838;4.430;2023-10-31T12:16:18;14.80;99.90
23568;DHT22;11962;50.838;4.430;2023-10-31T12:18:43;14.70;99.90
23568;DHT22;11962;50.838;4.430;2023-10-31T12:21:09;14.70;99.90
23568;DHT22;11962;50.838;4.430;2023-10-31T12:23:39;14.60;99.90
23568;DHT22;11962;50.838;4.430;2023-10-31T12:26:05;14.60;99.90
23568;DHT22;11962;50.838;4.430;2023-10-31T12:28:31;14.60;99.90
23568;DHT22;11962;50.838;4.430;2023-10-31T12:30:57;14.60;99.90
23568;DHT22;11962;50.838;4.430;2023-10-31T12:33:26;14.50;99.90
23568;DHT22;11962;50.838;4.430;2023-10-31T12:35:56;14.40;99.90
23568;DHT22;11962;50.838;4.430;2023-10-31T12:38:23;14.40;99.90
23568;DHT22;11962;50.838;4.430;2023-10-31T12:40:49;14.40;99.90
23568;DHT22;11962;50.838;4.430;2023-10-31T12:43:16;14.50;99.90
23568;DHT22;11962;50.838;4.430;2023-10-31T12:45:42;14.50;99.90
23568;DHT22;11962;50.838;4.430;2023-10-31T12:48:10;14.60;99.90
23568;DHT22;11962;50.838;4.430;2023-10-31T12:50:38;14.70;99.90
23568;DHT22;11962;50.838;4.430;2023-10-31T12:53:07;14.80;99.90
23568;DHT22;11962;50.838;4.430;2023-10-31T12:55:41;14.90;99.90
23568;DHT22;11962;50.838;4.430;2023-10-31T12:58:08;15.00;99.90
23568;DHT22;11962;50.838;4.430;2023-10-31T13:00:40;15.10;99.90
23568;DHT22;11962;50.838;4.430;2023-10-31T13:03:08;15.10;99.90
23568;DHT22;11962;50.838;4.430;2023-10-31T13:05:34;15.10;99.90
23568;DHT22;11962;50.838;4.430;2023-10-31T13:08:00;15.10;99.90
23568;DHT22;11962;50.838;4.430;2023-10-31T13:10:29;15.10;99.90
23568;DHT22;11962;50.838;4.430;2023-10-31T13:12:55;14.90;99.90
23568;DHT22;11962;50.838;4.430;2023-10-31T13:15:22;14.80;99.90
23568;DHT22;11962;50.838;4.430;2023-10-31T13:17:50;14.70;99.90
23568;DHT22;11962;50.838;4.430;2023-10-31T13:20:18;14.60;99.90
23568;DHT22;11962;50.838;4.430;2023-10-31T13:22:45;14.50;99.90
23568;DHT22;11962;50.838;4.430;2023-10-31T13:25:12;14.40;99.90
23568;DHT22;11962;50.838;4.430;2023-10-31T13:27:39;14.40;99.90
23568;DHT22;11962;50.838;4.430;2023-10-31T13:30:10;14.40;99.90
23568;DHT22;11962;50.838;4.430;2023-10-31T13:32:41;14.40;99.90
23568;DHT22;11962;50.838;4.430;2023-10-31T13:35:07;14.40;99.90
23568;DHT22;11962;50.838;4.430;2023-10-31T13:37:36;14.50;99.90
23568;DHT22;11962;50.838;4.430;2023-10-31T13:40:03;14.50;99.90
23568;DHT22;11962;50.838;4.430;2023-10-31T13:42:29;14.50;99.90
23568;DHT22;11962;50.838;4.430;2023-10-31T13:44:55;14.60;99.90
23568;DHT22;11962;50.838;4.430;2023-10-31T13:47:21;14.60;99.90
23568;DHT22;11962;50.838;4.430;2023-10-31T13:49:46;14.70;99.90
23568;DHT22;11962;50.838;4.430;2023-10-31T13:52:12;14.80;99.90
23568;DHT22;11962;50.838;4.430;2023-10-31T13:54:38;14.90;99.90
23568;DHT22;11962;50.838;4.430;2023-10-31T13:57:04;15.10;99.90
23568;DHT22;11962;50.838;4.430;2023-10-31T13:59:30;15.20;99.90
23568;DHT22;11962;50.838;4.430;2023-10-31T14:01:57;15.30;99.90
23568;DHT22;11962;50.838;4.430;2023-10-31T14:04:23;15.50;99.90
23568;DHT22;11962;50.838;4.430;2023-10-31T14:06:48;15.80;99.90
23568;DHT22;11962;50.838;4.430;2023-10-31T14:09:14;16.10;99.90
23568;DHT22;11962;50.838;4.430;2023-10-31T14:11:41;16.30;99.90
23568;DHT22;11962;50.838;4.430;2023-10-31T14:14:07;16.40;99.90
23568;DHT22;11962;50.838;4.430;2023-10-31T14:16:35;16.40;99.90
23568;DHT22;11962;50.838;4.430;2023-10-31T14:19:01;16.30;99.90
23568;DHT22;11962;50.838;4.430;2023-10-31T14:21:28;16.10;99.90
23568;DHT22;11962;50.838;4.430;2023-10-31T14:23:54;16.00;99.90
23568;DHT22;11962;50.838;4.430;2023-10-31T14:26:20;15.90;99.90
23568;DHT22;11962;50.838;4.430;2023-10-31T14:28:47;15.80;99.90
23568;DHT22;11962;50.838;4.430;2023-10-31T14:31:13;15.90;99.90
23568;DHT22;11962;50.838;4.430;2023-10-31T14:33:39;15.80;99.90
23568;DHT22;11962;50.838;4.430;2023-10-31T14:36:05;15.80;99.90
23568;DHT22;11962;50.838;4.430;2023-10-31T14:38:31;15.80;99.90
23568;DHT22;11962;50.838;4.430;2023-10-31T14:40:57;15.70;99.90
23568;DHT22;11962;50.838;4.430;2023-10-31T14:43:23;15.70;99.90
23568;DHT22;11962;50.838;4.430;2023-10-31T14:45:48;15.60;99.90
23568;DHT22;11962;50.838;4.430;2023-10-31T14:48:14;15.70;99.90
23568;DHT22;11962;50.838;4.430;2023-10-31T14:50:40;15.70;99.90
23568;DHT22;11962;50.838;4.430;2023-10-31T14:53:06;15.60;99.90
23568;DHT22;11962;50.838;4.430;2023-10-31T14:55:32;15.60;99.90
23568;DHT22;11962;50.838;4.430;2023-10-31T14:57:58;15.60;99.90
23568;DHT22;11962;50.838;4.430;2023-10-31T15:00:23;15.50;99.90
23568;DHT22;11962;50.838;4.430;2023-10-31T15:02:49;15.40;99.90
23568;DHT22;11962;50.838;4.430;2023-10-31T15:05:15;15.30;99.90
23568;DHT22;11962;50.838;4.430;2023-10-31T15:07:41;15.20;99.90
23568;DHT22;11962;50.838;4.430;2023-10-31T15:10:07;15.20;99.90
23568;DHT22;11962;50.838;4.430;2023-10-31T15:12:33;15.10;99.90
23568;DHT22;11962;50.838;4.430;2023-10-31T15:14:58;15.00;99.90
23568;DHT22;11962;50.838;4.430;2023-10-31T15:17:24;14.90;99.90
23568;DHT22;11962;50.838;4.430;2023-10-31T15:19:50;15.00;99.90
23568;DHT22;11962;50.838;4.430;2023-10-31T15:22:16;15.00;99.90
23568;DHT22;11962;50.838;4.430;2023-10-31T15:24:41;14.90;99.90
23568;DHT22;11962;50.838;4.430;2023-10-31T15:27:07;14.90;99.90